Time;durP1;ratioP1;P1;durP2;ratioP2;P2;SDS_P1;SDS_P2;PMS_P1;PMS_P2;Temp;Humidity;BMP_temperature;BMP_pressure;BME280_temperature;BME280_humidity;BME280_pressure;Samples;Min_cycle;Max_cycle;Signal;HPM_P1;HPM_P2
2024/04/05 00:00:44;;;;;;;;;;;;;;;18.61;57.06;98449.38;67982;1275;1016243;-64
2024/04/05 00:04:08;;;;;;;;;;;;;;;18.57;57.41;98447.86;67987;1275;1015855;-64
2024/04/05 00:07:10;;;;;;;;;;;;;;;18.51;57.81;98452.72;68024;1275;1016366;-64
2024/04/05 00:10:14;;;;;;;;;;;;;;;18.49;58.13;98454.29;68043;1275;1016102;-65
2024/04/05 00:13:17;;;;;;;;;;;;;;;18.38;58.38;98452.52;67915;1275;1016539;-64
2024/04/05 00:16:19;;;;;;;;;;;;;;;18.40;58.69;98453.84;68043;1275;1015876;-64
2024/04/05 00:19:22;;;;;;;;;;;;;;;18.43;58.88;98454.59;68048;1275;1016462;-63
2024/04/05 00:22:25;;;;;;;;;;;;;;;18.45;59.52;98456.30;68037;1275;1016455;-64
2024/04/05 00:25:28;;;;;;;;;;;;;;;18.36;59.80;98456.63;68011;1275;1016324;-64
2024/04/05 00:28:31;;;;;;;;;;;;;;;18.42;60.40;98458.73;67918;1275;1016291;-64
2024/04/05 00:31:34;;;;;;;;;;;;;;;18.42;59.98;98459.38;67993;1275;1016993;-64
2024/04/05 00:34:37;;;;;;;;;;;;;;;18.22;61.58;98462.27;67982;1275;1016140;-64
2024/04/05 00:37:40;;;;;;;;;;;;;;;18.09;62.94;98474.13;68032;1275;1016296;-65
2024/04/05 00:40:43;;;;;;;;;;;;;;;18.04;63.94;98479.02;67996;1275;1016019;-64
2024/04/05 00:43:46;;;;;;;;;;;;;;;17.98;64.97;98484.25;68032;1275;1016417;-64
2024/04/05 00:46:49;;;;;;;;;;;;;;;17.92;65.46;98495.73;67967;1275;1016310;-64
2024/04/05 00:49:51;;;;;;;;;;;;;;;17.91;65.62;98498.92;68010;1275;1016373;-64
2024/04/05 00:52:54;;;;;;;;;;;;;;;17.96;65.70;98506.19;68032;1275;1016864;-64
2024/04/05 00:55:58;;;;;;;;;;;;;;;17.93;65.31;98505.61;68042;1275;1015969;-65
2024/04/05 00:59:02;;;;;;;;;;;;;;;17.90;65.41;98501.66;68036;1275;1016485;-63
2024/04/05 01:02:05;;;;;;;;;;;;;;;17.82;65.56;98507.81;67927;1275;1016590;-65
2024/04/05 01:05:08;;;;;;;;;;;;;;;17.87;64.97;98503.14;68035;1275;1016619;-65
2024/04/05 01:08:11;;;;;;;;;;;;;;;18.01;64.96;98505.71;67988;1275;1016495;-64
2024/04/05 01:11:13;;;;;;;;;;;;;;;18.09;63.85;98505.27;68012;1275;1016222;-65
2024/04/05 01:14:16;;;;;;;;;;;;;;;18.22;63.98;98508.77;68047;1275;1016439;-65
2024/04/05 01:17:18;;;;;;;;;;;;;;;18.22;63.70;98509.35;68042;1275;1018688;-64
2024/04/05 01:20:25;;;;;;;;;;;;;;;18.11;64.74;98512.92;68022;1275;1016124;-63
2024/04/05 01:23:27;;;;;;;;;;;;;;;17.96;65.83;98515.17;68000;1275;1016509;-64
2024/04/05 01:26:34;;;;;;;;;;;;;;;18.02;65.49;98509.84;68047;1275;1016168;-64
2024/04/05 01:29:38;;;;;;;;;;;;;;;17.80;66.54;98515.16;68045;1275;1016469;-63
2024/04/05 01:32:41;;;;;;;;;;;;;;;17.73;66.88;98514.41;68031;1275;1016124;-64
2024/04/05 01:35:43;;;;;;;;;;;;;;;17.75;66.48;98515.39;67977;1275;1016580;-64
2024/04/05 01:38:46;;;;;;;;;;;;;;;17.71;66.15;98520.25;68055;1275;1016536;-65
2024/04/05 01:41:49;;;;;;;;;;;;;;;17.76;66.09;98524.70;67985;1275;1016340;-65
2024/04/05 01:44:52;;;;;;;;;;;;;;;17.68;66.34;98526.38;67975;1275;1016115;-64
2024/04/05 01:47:55;;;;;;;;;;;;;;;17.51;66.84;98529.17;67954;1275;1018362;-65
2024/04/05 01:50:58;;;;;;;;;;;;;;;17.54;66.83;98535.77;68007;1275;1016257;-64
2024/04/05 01:54:01;;;;;;;;;;;;;;;17.47;67.00;98540.52;68000;1275;1016929;-64
2024/04/05 01:57:04;;;;;;;;;;;;;;;17.38;67.09;98541.19;68046;1275;1016280;-64
2024/04/05 02:00:08;;;;;;;;;;;;;;;17.48;66.44;98543.98;68018;1275;1016333;-63
2024/04/05 02:03:11;;;;;;;;;;;;;;;17.55;65.20;98542.42;68075;1275;1016471;-65
2024/04/05 02:06:13;;;;;;;;;;;;;;;17.29;65.91;98545.17;67982;1275;1016446;-64
2024/04/05 02:09:18;;;;;;;;;;;;;;;17.21;65.52;98545.55;68060;1275;1017204;-64
2024/04/05 02:12:21;;;;;;;;;;;;;;;17.06;65.56;98545.71;68054;1275;1016361;-64
2024/04/05 02:15:23;;;;;;;;;;;;;;;17.12;64.78;98549.59;68023;1275;1016390;-65
2024/04/05 02:18:26;;;;;;;;;;;;;;;16.95;65.27;98551.14;68007;1276;1016230;-64
2024/04/05 02:21:28;;;;;;;;;;;;;;;16.99;64.64;98550.63;67975;1275;1019426;-64
2024/04/05 02:24:31;;;;;;;;;;;;;;;16.77;65.22;98546.58;68047;1275;1016466;-65
2024/04/05 02:27:36;;;;;;;;;;;;;;;16.73;65.18;98555.20;68052;1275;1016317;-64
2024/04/05 02:30:39;;;;;;;;;;;;;;;16.72;65.00;98559.55;68046;1275;1016542;-64
2024/04/05 02:33:42;;;;;;;;;;;;;;;16.78;64.51;98566.10;67979;1275;1016285;-64
2024/04/05 02:36:45;;;;;;;;;;;;;;;16.70;64.41;98569.80;67948;1275;1016464;-65
2024/04/05 02:39:48;;;;;;;;;;;;;;;16.51;65.29;98577.16;68003;1275;1016331;-65
2024/04/05 02:43:10;;;;;;;;;;;;;;;16.45;65.77;98587.07;68002;1275;1016436;-65
2024/04/05 02:46:13;;;;;;;;;;;;;;;16.41;65.48;98589.66;68052;1275;1016293;-65
2024/04/05 02:49:16;;;;;;;;;;;;;;;16.32;65.63;98592.05;68019;1275;1016286;-63
2024/04/05 02:52:22;;;;;;;;;;;;;;;16.27;65.22;98600.45;68065;1275;1018867;-64
2024/04/05 02:55:24;;;;;;;;;;;;;;;16.18;65.88;98607.41;68025;1275;1016294;-64
2024/04/05 02:58:27;;;;;;;;;;;;;;;16.07;66.10;98613.11;68038;1275;1016426;-65
2024/04/05 03:01:29;;;;;;;;;;;;;;;16.04;65.63;98613.35;68042;1275;1016343;-65
2024/04/05 03:04:33;;;;;;;;;;;;;;;16.06;65.45;98619.71;68063;1275;1016415;-64
2024/04/05 03:07:36;;;;;;;;;;;;;;;15.96;66.32;98627.15;68019;1275;1018309;-64
2024/04/05 03:10:39;;;;;;;;;;;;;;;15.96;66.48;98631.53;67992;1275;1015948;-65
2024/04/05 03:13:46;;;;;;;;;;;;;;;15.91;66.48;98634.07;68026;1275;1018226;-64
2024/04/05 03:16:50;;;;;;;;;;;;;;;15.95;66.32;98635.67;68061;1275;1018816;-64
2024/04/05 03:19:54;;;;;;;;;;;;;;;16.03;66.08;98645.02;67983;1275;1016950;-65
2024/04/05 03:22:57;;;;;;;;;;;;;;;16.04;66.00;98649.86;68025;1275;1016457;-65
2024/04/05 03:25:59;;;;;;;;;;;;;;;16.03;65.81;98654.34;68044;1275;1016417;-64
2024/04/05 03:29:03;;;;;;;;;;;;;;;15.83;66.92;98658.33;68059;1275;1016404;-63
2024/04/05 03:32:07;;;;;;;;;;;;;;;15.88;66.36;98656.86;68044;1275;1016100;-64
2024/04/05 03:35:09;;;;;;;;;;;;;;;16.00;65.57;98653.05;68064;1275;1016386;-64
2024/04/05 03:38:13;;;;;;;;;;;;;;;16.00;65.41;98655.71;68006;1275;1016273;-63
2024/04/05 03:44:39;;;;;;;;;;;;;;;15.97;65.02;98671.15;68036;1275;1016407;-63
2024/04/05 03:47:42;;;;;;;;;;;;;;;15.91;65.10;98671.48;68059;1275;1016454;-64
2024/04/05 03:50:46;;;;;;;;;;;;;;;15.90;64.69;98676.08;68052;1275;1016491;-64
2024/04/05 03:53:49;;;;;;;;;;;;;;;15.82;64.73;98683.13;67989;1275;1016214;-64
2024/04/05 03:56:51;;;;;;;;;;;;;;;15.82;64.45;98693.20;68039;1275;1016342;-64
2024/04/05 03:59:55;;;;;;;;;;;;;;;15.83;64.16;98692.58;68037;1275;1017140;-64
2024/04/05 04:02:58;;;;;;;;;;;;;;;15.78;64.42;98694.58;68028;1275;1016122;-64
2024/04/05 04:06:01;;;;;;;;;;;;;;;15.72;64.46;98698.93;67984;1275;1016487;-64
2024/04/05 04:09:09;;;;;;;;;;;;;;;15.67;64.17;98703.90;68049;1275;1015974;-64
2024/04/05 04:12:12;;;;;;;;;;;;;;;15.64;64.09;98705.02;68051;1275;1016454;-64
2024/04/05 04:15:16;;;;;;;;;;;;;;;15.60;64.08;98709.77;68067;1275;1016413;-64
2024/04/05 04:18:18;;;;;;;;;;;;;;;15.59;63.89;98705.68;68000;1275;1016520;-65
2024/04/05 04:21:24;;;;;;;;;;;;;;;15.63;63.65;98710.48;67970;1275;1016705;-64
2024/04/05 04:24:26;;;;;;;;;;;;;;;15.60;63.72;98718.85;68008;1275;1016280;-64
2024/04/05 04:27:28;;;;;;;;;;;;;;;15.55;64.09;98719.52;67993;1275;1016322;-61
2024/04/05 04:30:52;;;;;;;;;;;;;;;15.62;63.72;98724.27;67974;1275;1016347;-64
2024/04/05 04:33:55;;;;;;;;;;;;;;;15.67;63.37;98730.02;67985;1275;1016502;-64
2024/04/05 04:36:58;;;;;;;;;;;;;;;15.75;63.04;98733.23;68057;1275;1016039;-65
2024/04/05 04:40:02;;;;;;;;;;;;;;;15.71;62.99;98734.27;68004;1275;1017008;-64
2024/04/05 04:43:06;;;;;;;;;;;;;;;15.65;62.94;98739.06;68027;1275;1016825;-64
2024/04/05 04:46:10;;;;;;;;;;;;;;;15.77;62.29;98737.85;68002;1275;1016403;-64
2024/04/05 04:49:13;;;;;;;;;;;;;;;15.81;62.29;98743.58;68061;1275;1016766;-64
2024/04/05 04:52:16;;;;;;;;;;;;;;;15.81;62.01;98744.64;68022;1275;1016381;-64
2024/04/05 04:55:23;;;;;;;;;;;;;;;15.76;62.23;98750.20;68025;1275;1016310;-64
2024/04/05 04:58:29;;;;;;;;;;;;;;;15.83;61.82;98747.91;68024;1275;1016242;-64
2024/04/05 05:01:52;;;;;;;;;;;;;;;15.89;61.93;98751.45;68020;1275;1016395;-64
2024/04/05 05:04:54;;;;;;;;;;;;;;;15.92;61.64;98753.31;68032;1275;1016145;-64
2024/04/05 05:07:57;;;;;;;;;;;;;;;16.05;61.24;98749.58;68016;1275;1016179;-64
2024/04/05 05:10:59;;;;;;;;;;;;;;;16.14;60.98;98754.48;67999;1275;1017616;-65
2024/04/05 05:14:02;;;;;;;;;;;;;;;16.32;60.30;98759.35;67970;1275;1016341;-64
2024/04/05 05:17:05;;;;;;;;;;;;;;;16.31;60.24;98768.90;67959;1275;1016365;-64
2024/04/05 05:20:08;;;;;;;;;;;;;;;16.39;60.14;98773.17;68052;1275;1016442;-63
2024/04/05 05:23:11;;;;;;;;;;;;;;;16.42;59.90;98779.49;68002;1275;1016410;-64
2024/04/05 05:26:15;;;;;;;;;;;;;;;16.53;59.48;98779.77;68060;1275;1016394;-64
2024/04/05 05:29:20;;;;;;;;;;;;;;;16.66;58.86;98787.63;67926;1275;1016996;-64
2024/04/05 05:32:22;;;;;;;;;;;;;;;16.85;58.59;98790.43;68057;1275;1016502;-64
2024/04/05 05:35:25;;;;;;;;;;;;;;;16.97;58.27;98792.26;67972;1275;1016212;-65
2024/04/05 05:38:28;;;;;;;;;;;;;;;17.07;57.40;98800.86;67906;1275;1016291;-64
2024/04/05 05:41:30;;;;;;;;;;;;;;;17.07;57.16;98803.67;68067;1275;1016680;-65
2024/04/05 05:44:33;;;;;;;;;;;;;;;17.11;56.85;98805.48;68019;1275;1016260;-64
2024/04/05 05:47:40;;;;;;;;;;;;;;;17.15;56.58;98809.20;67924;1275;1017071;-65
2024/04/05 05:50:43;;;;;;;;;;;;;;;17.20;56.65;98807.84;68052;1275;1016301;-64
2024/04/05 05:53:46;;;;;;;;;;;;;;;17.18;56.41;98816.38;68030;1275;1016228;-64
2024/04/05 05:56:53;;;;;;;;;;;;;;;17.39;56.56;98813.63;68058;1275;1016423;-65
2024/04/05 05:59:56;;;;;;;;;;;;;;;17.62;55.97;98817.02;68032;1275;1017216;-64
2024/04/05 06:02:59;;;;;;;;;;;;;;;17.67;55.11;98825.95;65790;1275;5388492;-65
2024/04/05 06:06:06;;;;;;;;;;;;;;;17.74;54.46;98824.98;67998;1275;1015988;-65
2024/04/05 06:09:09;;;;;;;;;;;;;;;17.78;54.37;98829.36;68075;1274;1016069;-64
2024/04/05 06:12:12;;;;;;;;;;;;;;;17.84;54.08;98832.94;67995;1275;1016352;-63
2024/04/05 06:15:15;;;;;;;;;;;;;;;18.01;54.46;98828.94;68064;1275;1016269;-65
2024/04/05 06:18:18;;;;;;;;;;;;;;;18.24;53.23;98832.49;68016;1275;1015858;-63
2024/04/05 06:21:22;;;;;;;;;;;;;;;18.49;53.42;98835.31;68038;1275;1017473;-64
2024/04/05 06:24:25;;;;;;;;;;;;;;;18.70;53.01;98844.11;68090;1275;1016318;-64
2024/04/05 06:27:27;;;;;;;;;;;;;;;18.69;50.72;98850.24;68000;1275;1016299;-65
2024/04/05 06:30:30;;;;;;;;;;;;;;;18.60;52.29;98847.90;67983;1275;1016282;-65
2024/04/05 06:33:33;;;;;;;;;;;;;;;18.65;51.38;98847.23;68059;1275;1018950;-64
2024/04/05 06:36:37;;;;;;;;;;;;;;;18.64;52.15;98852.83;68020;1275;1016622;-65
2024/04/05 06:39:40;;;;;;;;;;;;;;;18.53;51.43;98856.19;67979;1275;1016418;-64
2024/04/05 06:42:43;;;;;;;;;;;;;;;18.53;52.05;98856.29;68037;1275;1016446;-65
2024/04/05 06:45:45;;;;;;;;;;;;;;;18.61;51.66;98873.48;68052;1275;1015962;-64
2024/04/05 06:48:48;;;;;;;;;;;;;;;18.73;50.68;98867.79;68056;1275;1015612;-64
2024/04/05 06:51:51;;;;;;;;;;;;;;;18.92;51.77;98876.05;68030;1275;1016276;-65
2024/04/05 06:54:56;;;;;;;;;;;;;;;19.09;50.44;98879.80;68030;1275;1016269;-64
2024/04/05 06:58:00;;;;;;;;;;;;;;;19.12;50.71;98879.88;67989;1275;1016449;-64
2024/04/05 07:01:06;;;;;;;;;;;;;;;19.08;50.42;98883.21;68015;1275;1016399;-64
2024/04/05 07:04:09;;;;;;;;;;;;;;;19.01;50.74;98885.73;67992;1275;1016440;-65
2024/04/05 07:07:12;;;;;;;;;;;;;;;18.77;51.02;98892.04;67981;1275;1016442;-64
2024/04/05 07:10:14;;;;;;;;;;;;;;;18.76;50.63;98895.28;68009;1275;1016278;-64
2024/04/05 07:13:16;;;;;;;;;;;;;;;18.84;51.39;98894.39;67968;1275;1016278;-64
2024/04/05 07:16:19;;;;;;;;;;;;;;;18.99;50.83;98894.25;68046;1275;1017121;-65
2024/04/05 07:19:21;;;;;;;;;;;;;;;19.01;51.03;98895.15;68040;1275;1016456;-64
2024/04/05 07:22:25;;;;;;;;;;;;;;;19.09;51.34;98900.93;67928;1275;1016391;-64
2024/04/05 07:25:28;;;;;;;;;;;;;;;19.05;50.81;98897.05;67920;1275;1016501;-65
2024/04/05 07:28:32;;;;;;;;;;;;;;;19.23;50.79;98902.57;68017;1275;1017306;-64
2024/04/05 07:31:36;;;;;;;;;;;;;;;19.41;50.50;98909.36;68021;1275;1016361;-63
2024/04/05 07:34:39;;;;;;;;;;;;;;;19.29;50.12;98913.31;68012;1275;1017254;-64
2024/04/05 07:37:41;;;;;;;;;;;;;;;19.27;49.65;98920.27;68084;1275;1016427;-64
2024/04/05 07:40:44;;;;;;;;;;;;;;;19.25;50.88;98920.05;67927;1275;1016395;-64
2024/04/05 07:43:46;;;;;;;;;;;;;;;19.45;50.63;98921.98;67980;1275;1016895;-65
2024/04/05 07:46:49;;;;;;;;;;;;;;;19.56;50.35;98924.77;68055;1275;1016664;-65
2024/04/05 07:49:51;;;;;;;;;;;;;;;19.34;49.53;98922.98;68052;1275;1016169;-65
2024/04/05 07:52:54;;;;;;;;;;;;;;;19.07;49.86;98929.25;68020;1275;1016359;-64
2024/04/05 07:55:57;;;;;;;;;;;;;;;19.30;50.17;98926.69;68083;1275;1016361;-64
2024/04/05 07:59:00;;;;;;;;;;;;;;;19.38;50.71;98928.27;68062;1275;1016021;-64
2024/04/05 08:02:03;;;;;;;;;;;;;;;20.11;49.96;98921.61;68009;1275;1017839;-64
2024/04/05 08:05:06;;;;;;;;;;;;;;;20.35;48.50;98921.71;68057;1275;1016162;-64
2024/04/05 08:08:09;;;;;;;;;;;;;;;20.72;48.04;98913.91;67973;1275;1016470;-65
2024/04/05 08:11:12;;;;;;;;;;;;;;;20.64;47.41;98922.34;68044;1275;1016059;-64
2024/04/05 08:14:14;;;;;;;;;;;;;;;20.68;46.69;98919.30;68001;1275;1016413;-64
2024/04/05 08:17:17;;;;;;;;;;;;;;;20.55;47.69;98920.04;67954;1275;1016362;-64
2024/04/05 08:20:20;;;;;;;;;;;;;;;20.73;46.78;98915.58;68065;1275;1015988;-64
2024/04/05 08:23:26;;;;;;;;;;;;;;;20.97;46.48;98919.90;68010;1275;1016378;-65
2024/04/05 08:26:29;;;;;;;;;;;;;;;20.73;45.85;98920.89;68022;1275;1016415;-64
2024/04/05 08:29:31;;;;;;;;;;;;;;;20.40;46.39;98919.96;68031;1275;1016493;-65
2024/04/05 08:32:33;;;;;;;;;;;;;;;20.52;46.07;98921.58;68039;1275;1016410;-64
2024/04/05 08:35:36;;;;;;;;;;;;;;;20.60;46.62;98929.84;68020;1275;1016407;-64
2024/04/05 08:38:39;;;;;;;;;;;;;;;20.82;45.24;98936.02;67991;1275;1016202;-64
2024/04/05 08:41:41;;;;;;;;;;;;;;;20.39;45.04;98936.19;68027;1275;1016442;-63
2024/04/05 08:44:44;;;;;;;;;;;;;;;20.46;45.27;98945.24;68056;1275;1016088;-64
2024/04/05 08:47:47;;;;;;;;;;;;;;;20.72;44.88;98933.78;68054;1275;1016497;-64
2024/04/05 08:50:49;;;;;;;;;;;;;;;20.79;43.72;98936.80;67995;1275;1016293;-64
2024/04/05 08:53:54;;;;;;;;;;;;;;;21.06;43.86;98931.79;68050;1275;1018873;-64
2024/04/05 08:56:58;;;;;;;;;;;;;;;21.15;43.84;98937.77;68062;1275;1016326;-64
2024/04/05 09:00:01;;;;;;;;;;;;;;;21.14;44.50;98939.86;68005;1275;1015989;-64
2024/04/05 09:03:08;;;;;;;;;;;;;;;21.35;44.03;98940.13;68054;1275;1016259;-64
2024/04/05 09:06:10;;;;;;;;;;;;;;;21.14;43.71;98941.23;68053;1275;1016490;-64
2024/04/05 09:09:15;;;;;;;;;;;;;;;21.34;43.27;98940.42;68008;1275;1016440;-64
2024/04/05 09:12:21;;;;;;;;;;;;;;;21.50;43.58;98936.13;68030;1275;1016320;-64
2024/04/05 09:15:25;;;;;;;;;;;;;;;21.86;42.85;98938.03;68038;1275;1016742;-65
2024/04/05 09:18:28;;;;;;;;;;;;;;;21.92;42.25;98939.88;68025;1275;1016393;-64
2024/04/05 09:21:31;;;;;;;;;;;;;;;22.18;41.57;98947.30;68036;1275;1016225;-63
2024/04/05 09:24:33;;;;;;;;;;;;;;;22.16;41.63;98947.30;68020;1275;1018807;-64
2024/04/05 09:27:35;;;;;;;;;;;;;;;22.26;41.31;98949.61;68016;1275;1016233;-63
2024/04/05 09:30:38;;;;;;;;;;;;;;;22.56;41.85;98950.70;68021;1275;1016262;-64
2024/04/05 09:33:40;;;;;;;;;;;;;;;22.65;40.75;98947.96;68058;1275;1016139;-64
2024/04/05 09:36:42;;;;;;;;;;;;;;;22.65;40.94;98945.77;68046;1275;1016488;-65
2024/04/05 09:39:46;;;;;;;;;;;;;;;22.64;39.83;98946.80;68030;1275;1016440;-65
2024/04/05 09:42:49;;;;;;;;;;;;;;;22.55;40.49;98940.96;68025;1275;1017434;-64
2024/04/05 09:45:52;;;;;;;;;;;;;;;22.63;40.40;98941.42;67932;1275;1016352;-65
2024/04/05 09:48:54;;;;;;;;;;;;;;;22.61;40.23;98945.56;68013;1275;1016425;-64
2024/04/05 09:51:57;;;;;;;;;;;;;;;22.87;40.55;98945.53;68026;1275;1015794;-65
2024/04/05 09:55:00;;;;;;;;;;;;;;;22.88;39.57;98947.94;67951;1275;1016535;-64
2024/04/05 09:58:03;;;;;;;;;;;;;;;22.67;40.15;98946.83;68030;1275;1016468;-65
2024/04/05 10:01:08;;;;;;;;;;;;;;;22.67;40.37;98945.94;68001;1275;1016539;-63
2024/04/05 10:04:11;;;;;;;;;;;;;;;22.60;41.00;98947.48;68050;1275;1016100;-65
2024/04/05 10:07:14;;;;;;;;;;;;;;;22.64;41.08;98950.21;68011;1275;1016325;-65
2024/04/05 10:10:16;;;;;;;;;;;;;;;22.24;40.76;98946.64;68037;1275;1016472;-63
2024/04/05 10:13:19;;;;;;;;;;;;;;;22.22;41.59;98950.95;68047;1275;1016388;-64
2024/04/05 10:16:21;;;;;;;;;;;;;;;22.09;41.18;98943.24;68048;1275;1016485;-64
2024/04/05 10:19:24;;;;;;;;;;;;;;;22.09;40.69;98951.83;68012;1275;1016410;-64
2024/04/05 10:22:26;;;;;;;;;;;;;;;22.16;41.23;98945.86;68061;1275;1016426;-64
2024/04/05 10:25:29;;;;;;;;;;;;;;;22.38;41.93;98943.06;68050;1275;1016201;-63
2024/04/05 10:28:31;;;;;;;;;;;;;;;22.67;40.73;98945.43;68039;1275;1016447;-64
2024/04/05 10:31:34;;;;;;;;;;;;;;;22.76;40.18;98940.49;68028;1275;1016379;-64
2024/04/05 10:34:37;;;;;;;;;;;;;;;22.47;40.23;98942.43;68015;1275;1017758;-64
2024/04/05 10:37:39;;;;;;;;;;;;;;;22.36;40.18;98944.96;68012;1275;1016264;-63
2024/04/05 10:40:42;;;;;;;;;;;;;;;22.52;40.35;98945.98;67985;1275;1016397;-63
2024/04/05 10:43:44;;;;;;;;;;;;;;;22.82;40.19;98944.08;68057;1275;1015973;-64
2024/04/05 10:46:48;;;;;;;;;;;;;;;22.60;40.24;98943.09;68030;1275;1016183;-64
2024/04/05 10:49:50;;;;;;;;;;;;;;;22.78;39.92;98951.70;68045;1275;1016400;-63
2024/04/05 10:52:53;;;;;;;;;;;;;;;22.72;40.30;98951.87;68071;1275;1016382;-63
2024/04/05 10:55:56;;;;;;;;;;;;;;;22.89;39.41;98949.27;67972;1275;1016474;-64
2024/04/05 10:58:58;;;;;;;;;;;;;;;22.94;39.43;98949.27;68063;1275;1016194;-64
2024/04/05 11:02:01;;;;;;;;;;;;;;;22.79;39.26;98955.70;67946;1275;1016193;-64
2024/04/05 11:05:05;;;;;;;;;;;;;;;22.86;40.24;98951.31;68027;1275;1018762;-64
2024/04/05 11:08:08;;;;;;;;;;;;;;;22.66;39.24;98959.39;67991;1275;1017143;-64
2024/04/05 11:11:11;;;;;;;;;;;;;;;22.55;38.96;98966.16;68059;1275;1019072;-64
2024/04/05 11:14:13;;;;;;;;;;;;;;;22.45;39.51;98971.32;67992;1275;1018436;-65
2024/04/05 11:17:16;;;;;;;;;;;;;;;22.22;39.75;98971.58;67972;1275;1016482;-65
2024/04/05 11:20:18;;;;;;;;;;;;;;;22.05;40.10;98969.11;68033;1275;1018592;-64
2024/04/05 11:23:21;;;;;;;;;;;;;;;22.17;40.00;98971.27;68063;1275;1016432;-64
2024/04/05 11:26:30;;;;;;;;;;;;;;;22.42;40.36;98964.10;68022;1275;1016374;-64
2024/04/05 11:29:32;;;;;;;;;;;;;;;22.71;39.42;98956.38;68037;1275;1016501;-64
2024/04/05 11:32:41;;;;;;;;;;;;;;;23.25;38.88;98951.85;68053;1275;1018009;-64
2024/04/05 11:35:44;;;;;;;;;;;;;;;23.70;38.68;98950.93;67972;1275;1016443;-64
2024/04/05 11:38:46;;;;;;;;;;;;;;;24.14;37.78;98958.95;68010;1275;1018366;-65
2024/04/05 11:41:59;;;;;;;;;;;;;;;24.15;37.63;98956.94;68031;1275;1016020;-65
2024/04/05 11:45:02;;;;;;;;;;;;;;;24.17;37.28;98954.54;68005;1275;1016529;-64
2024/04/05 11:48:04;;;;;;;;;;;;;;;24.17;37.85;98958.42;67991;1275;1016511;-64
2024/04/05 11:51:07;;;;;;;;;;;;;;;24.20;37.46;98965.77;68072;1275;1016397;-64
2024/04/05 11:54:12;;;;;;;;;;;;;;;24.23;38.19;98959.02;68064;1275;1016251;-65
2024/04/05 11:57:15;;;;;;;;;;;;;;;24.76;37.38;98952.77;68006;1275;1016554;-64
2024/04/05 12:00:18;;;;;;;;;;;;;;;24.99;36.48;98956.05;68080;1275;1016513;-64
2024/04/05 12:03:20;;;;;;;;;;;;;;;24.86;37.47;98962.28;67999;1275;1016391;-65
2024/04/05 12:06:23;;;;;;;;;;;;;;;24.47;35.46;98964.42;68031;1275;1016334;-64
2024/04/05 12:09:26;;;;;;;;;;;;;;;23.74;36.68;98963.64;68035;1275;1016222;-65
2024/04/05 12:12:28;;;;;;;;;;;;;;;23.54;38.11;98961.11;68007;1275;1016207;-63
2024/04/05 12:15:31;;;;;;;;;;;;;;;23.83;38.40;98959.11;68033;1275;1016149;-64
2024/04/05 12:18:34;;;;;;;;;;;;;;;24.35;36.75;98959.23;68009;1275;1016472;-65
2024/04/05 12:21:39;;;;;;;;;;;;;;;24.11;36.53;98960.98;68063;1275;1016423;-64
2024/04/05 12:24:42;;;;;;;;;;;;;;;24.11;37.28;98965.23;68044;1275;1016423;-64
2024/04/05 12:27:44;;;;;;;;;;;;;;;24.17;36.58;98969.88;67994;1275;1016019;-64
2024/04/05 12:30:46;;;;;;;;;;;;;;;24.34;36.94;98957.60;68000;1275;1016748;-65
2024/04/05 12:33:49;;;;;;;;;;;;;;;24.69;35.48;98954.80;67932;1275;1016478;-64
2024/04/05 12:36:52;;;;;;;;;;;;;;;24.96;35.69;98954.27;68000;1275;1018945;-64
2024/04/05 12:39:55;;;;;;;;;;;;;;;24.93;35.26;98954.76;67928;1275;1016368;-64
2024/04/05 12:42:58;;;;;;;;;;;;;;;24.98;35.64;98956.85;68001;1275;1016321;-64
2024/04/05 12:46:00;;;;;;;;;;;;;;;24.63;35.01;98954.77;67988;1275;1016492;-64
2024/04/05 12:49:03;;;;;;;;;;;;;;;24.49;35.80;98942.27;68000;1275;1016498;-65
2024/04/05 12:52:05;;;;;;;;;;;;;;;24.85;35.39;98944.84;67921;1275;1016339;-65
2024/04/05 12:55:09;;;;;;;;;;;;;;;25.53;34.46;98934.05;68067;1275;1016480;-65
2024/04/05 12:58:12;;;;;;;;;;;;;;;26.08;34.60;98938.79;68072;1275;1016157;-65
2024/04/05 13:01:14;;;;;;;;;;;;;;;25.86;34.07;98938.08;68052;1275;1016061;-64
2024/04/05 13:04:17;;;;;;;;;;;;;;;25.49;33.84;98938.42;67994;1275;1020144;-64
2024/04/05 13:07:19;;;;;;;;;;;;;;;25.14;34.82;98941.52;68018;1275;1016518;-64
2024/04/05 13:10:22;;;;;;;;;;;;;;;24.93;34.97;98939.91;68039;1275;1017227;-64
2024/04/05 13:13:25;;;;;;;;;;;;;;;24.99;35.78;98938.13;67991;1275;1016534;-65
2024/04/05 13:16:27;;;;;;;;;;;;;;;25.36;34.67;98938.70;68005;1275;1016909;-64
2024/04/05 13:19:30;;;;;;;;;;;;;;;25.61;34.47;98932.46;67996;1275;1019074;-64
2024/04/05 13:22:32;;;;;;;;;;;;;;;25.43;33.90;98920.98;68032;1275;1015986;-64
2024/04/05 13:25:34;;;;;;;;;;;;;;;25.09;34.17;98921.02;68044;1275;1016277;-64
2024/04/05 13:28:37;;;;;;;;;;;;;;;24.24;34.86;98925.72;67994;1275;1018208;-63
2024/04/05 13:31:40;;;;;;;;;;;;;;;23.90;35.24;98931.31;68032;1275;1017033;-65
2024/04/05 13:34:42;;;;;;;;;;;;;;;23.77;35.94;98923.89;68042;1275;1016439;-64
2024/04/05 13:37:45;;;;;;;;;;;;;;;23.86;36.03;98915.05;68013;1275;1016337;-64
2024/04/05 13:40:47;;;;;;;;;;;;;;;24.10;35.84;98910.35;67988;1275;1016480;-64
2024/04/05 13:43:49;;;;;;;;;;;;;;;24.13;35.35;98911.05;68001;1275;1016048;-64
2024/04/05 13:46:52;;;;;;;;;;;;;;;24.04;35.61;98905.27;68020;1275;1016252;-63
2024/04/05 13:49:54;;;;;;;;;;;;;;;24.37;35.26;98898.98;68029;1275;1016705;-64
2024/04/05 13:52:59;;;;;;;;;;;;;;;25.12;35.32;98895.45;67969;1275;1016454;-65
2024/04/05 13:56:01;;;;;;;;;;;;;;;25.65;33.90;98896.02;67997;1275;1016865;-64
2024/04/05 13:59:04;;;;;;;;;;;;;;;25.62;33.69;98897.48;68056;1275;1015941;-64
2024/04/05 14:02:06;;;;;;;;;;;;;;;25.46;33.90;98892.28;68014;1275;1016452;-64
2024/04/05 14:08:47;;;;;;;;;;;;;;;24.44;34.39;98898.73;68035;1275;1016419;-65
2024/04/05 14:15:27;;;;;;;;;;;;;;;24.40;34.98;98894.36;68007;1275;1016438;-64
2024/04/05 14:18:29;;;;;;;;;;;;;;;24.76;34.20;98889.59;67966;1275;1016473;-65
2024/04/05 14:21:32;;;;;;;;;;;;;;;24.87;33.88;98886.87;68017;1275;1016405;-65
2024/04/05 14:24:35;;;;;;;;;;;;;;;25.02;33.93;98880.02;68050;1275;1015954;-65
2024/04/05 14:27:38;;;;;;;;;;;;;;;25.08;33.48;98867.10;67985;1275;1016444;-65
2024/04/05 14:30:40;;;;;;;;;;;;;;;25.48;33.85;98859.42;68016;1275;1016310;-65
2024/04/05 14:33:46;;;;;;;;;;;;;;;25.86;32.53;98856.15;68042;1275;1016657;-64
2024/04/05 14:36:48;;;;;;;;;;;;;;;26.03;33.04;98849.10;68019;1275;1015977;-65
2024/04/05 14:39:51;;;;;;;;;;;;;;;26.35;31.93;98845.11;68037;1275;1016245;-65
2024/04/05 14:42:56;;;;;;;;;;;;;;;25.91;31.39;98854.51;68005;1275;1016453;-65
2024/04/05 14:45:59;;;;;;;;;;;;;;;25.26;31.72;98855.48;68026;1275;1016848;-64
2024/04/05 14:49:02;;;;;;;;;;;;;;;24.58;32.23;98859.34;67973;1275;1016458;-65
2024/04/05 14:52:04;;;;;;;;;;;;;;;24.29;33.06;98859.52;68001;1275;1016305;-64
2024/04/05 14:55:08;;;;;;;;;;;;;;;24.09;33.61;98870.61;68036;1275;1017315;-65
2024/04/05 14:58:11;;;;;;;;;;;;;;;24.33;33.90;98867.58;67986;1275;1016336;-64
2024/04/05 15:01:14;;;;;;;;;;;;;;;24.75;33.00;98861.83;68011;1275;1016205;-65
2024/04/05 15:04:16;;;;;;;;;;;;;;;24.53;32.52;98872.07;68012;1275;1018646;-65
2024/04/05 15:07:19;;;;;;;;;;;;;;;24.34;32.60;98866.57;68013;1275;1016449;-65
2024/04/05 15:10:21;;;;;;;;;;;;;;;24.68;32.35;98862.14;68021;1275;1016369;-65
2024/04/05 15:13:24;;;;;;;;;;;;;;;25.09;31.83;98857.86;67972;1275;1016420;-64
2024/04/05 15:16:29;;;;;;;;;;;;;;;25.32;32.21;98855.95;67993;1275;1016444;-65
2024/04/05 15:19:34;;;;;;;;;;;;;;;24.84;32.01;98857.64;67939;1275;1016326;-66
2024/04/05 15:22:36;;;;;;;;;;;;;;;24.50;32.06;98864.67;67959;1275;1015977;-65
2024/04/05 15:25:39;;;;;;;;;;;;;;;24.78;31.46;98868.38;67992;1275;1017160;-65
2024/04/05 15:28:41;;;;;;;;;;;;;;;24.85;31.46;98866.79;68014;1275;1016444;-66
2024/04/05 15:31:43;;;;;;;;;;;;;;;24.66;31.69;98862.83;67990;1275;1016950;-65
2024/04/05 15:34:46;;;;;;;;;;;;;;;25.10;31.01;98867.04;67966;1275;1017623;-65
2024/04/05 15:37:49;;;;;;;;;;;;;;;25.16;30.82;98866.05;68031;1275;1016288;-64
2024/04/05 15:40:51;;;;;;;;;;;;;;;25.49;31.32;98862.39;67913;1275;1016151;-64